Time;durP1;ratioP1;P1;durP2;ratioP2;P2;SDS_P1;SDS_P2;PMS_P1;PMS_P2;Temp;Humidity;BMP_temperature;BMP_pressure;BME280_temperature;BME280_humidity;BME280_pressure;Samples;Min_cycle;Max_cycle;Signal;HPM_P1;HPM_P2
2022/09/16 00:00:12;;;;;;;5.97;4.20;;;20.20;54.80;;;;;;5031430;28;20980;-86
2022/09/16 00:02:39;;;;;;;7.50;4.73;;;20.10;54.80;;;;;;5052009;28;21037;-87
2022/09/16 00:05:06;;;;;;;4.20;3.83;;;20.20;55.20;;;;;;5051666;28;20467;-87
2022/09/16 00:07:33;;;;;;;5.03;4.57;;;20.20;55.10;;;;;;5023088;28;20809;-87
2022/09/16 00:10:00;;;;;;;4.27;3.87;;;20.10;54.60;;;;;;5032292;28;20469;-86
2022/09/16 00:12:27;;;;;;;5.43;4.60;;;20.10;54.40;;;;;;5034892;28;20528;-87
2022/09/16 00:14:55;;;;;;;5.50;4.00;;;20.20;54.30;;;;;;5032057;28;20444;-86
2022/09/16 00:17:23;;;;;;;5.13;4.40;;;20.20;54.20;;;;;;5032931;28;20463;-87
2022/09/16 00:19:50;;;;;;;5.37;4.03;;;20.30;54.20;;;;;;5002072;28;20462;-87
2022/09/16 00:22:18;;;;;;;5.50;4.50;;;20.30;54.20;;;;;;5032035;28;20485;-86
2022/09/16 00:24:45;;;;;;;5.33;3.83;;;20.30;54.40;;;;;;5049736;28;20460;-87
2022/09/16 00:27:12;;;;;;;7.10;5.13;;;20.30;54.30;;;;;;5034554;28;20458;-87
2022/09/16 00:29:39;;;;;;;5.33;3.77;;;20.30;54.10;;;;;;5050929;28;20480;-86
2022/09/16 00:32:06;;;;;;;4.07;3.73;;;20.40;54.10;;;;;;5022734;28;20438;-87
2022/09/16 00:34:34;;;;;;;6.37;3.40;;;20.30;53.60;;;;;;5032693;28;20973;-87
2022/09/16 00:37:02;;;;;;;5.33;3.80;;;20.20;54.10;;;;;;5027068;28;20457;-86
2022/09/16 00:39:29;;;;;;;3.77;3.37;;;20.30;54.20;;;;;;5031241;28;20506;-87
2022/09/16 00:41:56;;;;;;;8.97;3.30;;;20.30;53.60;;;;;;5030594;28;20473;-87
2022/09/16 00:44:52;;;;;;;3.50;3.20;;;20.10;53.00;;;;;;5031990;28;20538;-87
2022/09/16 00:47:23;;;;;;;4.17;3.20;;;20.10;53.80;;;;;;5025752;28;20510;-86
2022/09/16 00:49:53;;;;;;;3.83;2.87;;;20.20;54.20;;;;;;5034993;28;20480;-87
2022/09/16 00:52:20;;;;;;;3.80;3.50;;;20.20;53.50;;;;;;5049362;28;20804;-86
2022/09/16 00:54:47;;;;;;;5.10;3.57;;;20.20;54.30;;;;;;5036385;28;21045;-86
2022/09/16 00:57:15;;;;;;;5.10;3.47;;;20.20;54.00;;;;;;5031013;28;20945;-87
2022/09/16 00:59:47;;;;;;;3.90;2.97;;;20.30;54.30;;;;;;5040495;28;20463;-87
2022/09/16 01:02:18;;;;;;;4.37;2.90;;;20.30;53.70;;;;;;5051631;28;20512;-86
2022/09/16 01:04:50;;;;;;;4.27;3.50;;;20.30;53.80;;;;;;5051190;28;20479;-84
2022/09/16 01:07:24;;;;;;;4.37;3.10;;;20.20;53.80;;;;;;5032580;28;20437;-86
2022/09/16 01:09:52;;;;;;;6.00;3.77;;;20.20;53.70;;;;;;5050136;28;20480;-87
2022/09/16 01:12:19;;;;;;;5.90;3.20;;;20.10;53.50;;;;;;5031755;28;20448;-88
2022/09/16 01:14:57;;;;;;;3.93;3.53;;;20.10;53.80;;;;;;5050349;28;20453;-89
2022/09/16 01:18:03;;;;;;;7.60;3.30;;;20.10;53.90;;;;;;5032542;28;20458;-87
2022/09/16 01:21:06;;;;;;;4.33;3.27;;;20.10;53.40;;;;;;5023546;28;20985;-90
2022/09/16 01:24:07;;;;;;;5.03;3.30;;;20.00;53.80;;;;;;5051936;28;20461;-86
2022/09/16 01:27:05;;;;;;;5.70;3.27;;;20.00;53.90;;;;;;5033072;28;20907;-86
2022/09/16 01:29:56;;;;;;;4.00;3.60;;;20.00;53.90;;;;;;5042441;28;20502;-87
2022/09/16 01:32:31;;;;;;;4.33;2.97;;;20.00;54.00;;;;;;5019465;28;20794;-88
2022/09/16 01:35:03;;;;;;;6.33;2.90;;;20.00;54.10;;;;;;5017745;28;20480;-86
2022/09/16 01:37:37;;;;;;;3.73;2.97;;;20.00;54.10;;;;;;5034207;28;20461;-86
2022/09/16 01:40:10;;;;;;;4.03;2.93;;;20.00;54.00;;;;;;5052680;28;20468;-87
2022/09/16 01:42:46;;;;;;;6.03;3.00;;;20.00;53.80;;;;;;5009248;28;20464;-87
2022/09/16 01:45:19;;;;;;;3.37;3.07;;;20.00;53.40;;;;;;5041171;28;20463;-87
2022/09/16 01:47:55;;;;;;;5.27;2.90;;;19.80;53.10;;;;;;5051770;28;20448;-88
2022/09/16 01:50:28;;;;;;;6.70;2.90;;;19.70;53.70;;;;;;5033147;28;20472;-87
2022/09/16 01:53:01;;;;;;;5.67;2.77;;;19.70;53.80;;;;;;5023744;28;20438;-86
2022/09/16 01:55:33;;;;;;;4.73;2.27;;;19.70;54.10;;;;;;5038355;28;20465;-86
2022/09/16 01:58:06;;;;;;;3.00;2.40;;;19.80;54.00;;;;;;5054292;28;20944;-87
2022/09/16 02:00:33;;;;;;;4.37;2.60;;;19.60;53.90;;;;;;5033837;28;20477;-90
2022/09/16 02:03:06;;;;;;;10.97;3.17;;;19.60;53.40;;;;;;5052239;28;20449;-86
2022/09/16 02:05:36;;;;;;;5.13;2.60;;;19.50;54.10;;;;;;5052302;28;20449;-88
2022/09/16 02:08:07;;;;;;;3.70;2.73;;;19.50;53.70;;;;;;5027197;28;20482;-86
2022/09/16 02:10:39;;;;;;;2.73;2.50;;;19.50;53.40;;;;;;5037437;28;20476;-89
2022/09/16 02:13:20;;;;;;;3.73;2.53;;;19.40;53.60;;;;;;5019343;28;20448;-86
2022/09/16 02:15:52;;;;;;;7.10;2.30;;;19.10;53.90;;;;;;5040192;28;20483;-86
2022/09/16 02:18:24;;;;;;;5.20;3.00;;;19.00;54.40;;;;;;5038829;28;20988;-86
2022/09/16 02:20:53;;;;;;;3.37;2.60;;;19.00;54.30;;;;;;5039426;28;20481;-88
2022/09/16 02:23:24;;;;;;;3.00;2.27;;;19.00;54.10;;;;;;5027435;28;20457;-87
2022/09/16 02:25:54;;;;;;;8.70;3.50;;;19.10;54.70;;;;;;5054034;28;21029;-86
2022/09/16 02:28:25;;;;;;;5.90;2.73;;;19.20;54.90;;;;;;5021198;28;20449;-87
2022/09/16 02:30:55;;;;;;;3.50;2.70;;;19.30;54.50;;;;;;5042096;28;20487;-87
2022/09/16 02:33:25;;;;;;;4.67;2.87;;;19.30;54.70;;;;;;5045241;28;20531;-88
2022/09/16 02:35:55;;;;;;;3.40;3.10;;;19.40;54.40;;;;;;5037323;28;20461;-88
2022/09/16 02:38:25;;;;;;;5.30;2.43;;;19.50;54.20;;;;;;5022496;28;20469;-86
2022/09/16 02:40:55;;;;;;;5.13;3.10;;;19.60;54.70;;;;;;5035307;28;21000;-89
2022/09/16 02:43:23;;;;;;;7.57;2.90;;;19.70;54.80;;;;;;5026730;28;20453;-88
2022/09/16 02:45:59;;;;;;;9.63;3.00;;;19.70;54.80;;;;;;5034405;28;20489;-88
2022/09/16 02:48:32;;;;;;;4.00;3.00;;;19.80;54.70;;;;;;5035070;28;20513;-89
2022/09/16 02:51:04;;;;;;;3.00;2.67;;;19.80;54.60;;;;;;5054454;28;20475;-87
2022/09/16 02:53:40;;;;;;;6.60;3.13;;;19.90;54.60;;;;;;5035698;28;20507;-87
2022/09/16 02:56:12;;;;;;;8.00;3.40;;;19.90;54.70;;;;;;5052955;28;20445;-87
2022/09/16 02:58:39;;;;;;;9.27;3.50;;;19.90;55.00;;;;;;5037050;28;20523;-90
2022/09/16 03:01:06;;;;;;;4.60;3.47;;;19.80;54.80;;;;;;5052493;28;20473;-87
2022/09/16 03:03:34;;;;;;;4.80;3.00;;;19.80;54.80;;;;;;5052415;28;20540;-87
2022/09/16 03:06:14;;;;;;;4.73;3.60;;;19.70;54.60;;;;;;5027275;28;20440;-87
2022/09/16 03:08:43;;;;;;;3.47;2.30;;;19.70;54.90;;;;;;5023178;28;20544;-89
2022/09/16 03:11:38;;;;;;;5.00;3.40;;;19.60;55.00;;;;;;5048048;28;20469;-89
2022/09/16 03:14:37;;;;;;;4.10;3.10;;;19.60;55.60;;;;;;5013099;28;20544;-86
2022/09/16 03:17:15;;;;;;;3.50;2.83;;;19.60;56.00;;;;;;5012911;28;20468;-87
2022/09/16 03:19:54;;;;;;;4.90;3.03;;;19.50;55.90;;;;;;5053032;28;20472;-88
2022/09/16 03:22:32;;;;;;;9.23;4.10;;;19.50;55.90;;;;;;5051643;28;20463;-86
2022/09/16 03:25:07;;;;;;;4.43;3.30;;;19.50;55.60;;;;;;5034655;28;20445;-88
2022/09/16 03:27:40;;;;;;;4.40;2.50;;;19.40;55.70;;;;;;5052795;28;20518;-87
2022/09/16 03:30:10;;;;;;;4.80;3.13;;;19.20;55.00;;;;;;5033527;28;20469;-87
2022/09/16 03:32:43;;;;;;;9.97;2.73;;;19.20;54.80;;;;;;5020785;28;21219;-87
2022/09/16 03:35:18;;;;;;;5.33;2.27;;;19.10;54.90;;;;;;5052369;28;20444;-86
2022/09/16 03:37:46;;;;;;;2.80;2.20;;;19.00;55.10;;;;;;5054212;28;20981;-87
2022/09/16 03:40:16;;;;;;;6.03;2.50;;;18.90;55.00;;;;;;5017881;28;20453;-86
2022/09/16 03:42:44;;;;;;;5.20;2.80;;;18.90;54.80;;;;;;5051477;28;21332;-87
2022/09/16 03:45:15;;;;;;;6.70;3.10;;;18.90;55.40;;;;;;5032473;28;20504;-87
2022/09/16 03:47:43;;;;;;;3.10;2.60;;;18.90;54.90;;;;;;5052166;28;20450;-87
2022/09/16 03:50:13;;;;;;;4.27;2.60;;;19.00;55.00;;;;;;5052426;28;21115;-86
2022/09/16 03:52:40;;;;;;;3.10;2.10;;;19.10;54.90;;;;;;5051710;28;20445;-87
2022/09/16 03:55:09;;;;;;;5.27;2.63;;;19.20;54.80;;;;;;5052485;28;20455;-87
2022/09/16 03:57:37;;;;;;;4.47;2.80;;;19.30;54.80;;;;;;5052137;28;20458;-87
2022/09/16 04:00:05;;;;;;;4.87;2.57;;;19.40;55.00;;;;;;5022701;28;20567;-87
2022/09/16 04:02:39;;;;;;;4.30;2.37;;;19.50;55.00;;;;;;5036691;28;20453;-87
2022/09/16 04:05:07;;;;;;;5.90;2.60;;;19.50;55.10;;;;;;5023884;28;20452;-87
2022/09/16 04:07:36;;;;;;;4.97;2.53;;;19.50;55.00;;;;;;5034572;28;20456;-87
2022/09/16 04:10:04;;;;;;;3.60;2.53;;;19.60;55.30;;;;;;5033496;28;20462;-89
2022/09/16 04:12:31;;;;;;;3.50;2.80;;;19.50;55.50;;;;;;5049513;28;20968;-86
2022/09/16 04:14:58;;;;;;;3.13;2.90;;;19.40;55.50;;;;;;5031571;28;20532;-87
2022/09/16 04:17:25;;;;;;;6.23;2.40;;;19.40;55.80;;;;;;5025761;28;20797;-87
2022/09/16 04:19:52;;;;;;;6.93;2.90;;;19.50;56.00;;;;;;5031628;28;20479;-87
2022/09/16 04:22:19;;;;;;;9.67;3.33;;;19.40;55.50;;;;;;5031223;28;20459;-87
2022/09/16 04:24:47;;;;;;;4.27;3.20;;;19.30;56.30;;;;;;5040786;28;20449;-87
2022/09/16 04:27:14;;;;;;;2.93;2.40;;;19.30;56.60;;;;;;5030685;28;20488;-87
2022/09/16 04:29:42;;;;;;;16.23;3.40;;;19.30;56.70;;;;;;5035462;28;20798;-89
2022/09/16 04:32:09;;;;;;;5.43;3.27;;;19.30;56.30;;;;;;5030823;28;20471;-91
2022/09/16 04:34:36;;;;;;;8.33;3.20;;;19.30;56.40;;;;;;5035005;28;20487;-87
2022/09/16 04:37:03;;;;;;;4.53;2.63;;;19.30;56.40;;;;;;5017882;28;20457;-87
2022/09/16 04:39:30;;;;;;;3.37;2.50;;;19.20;56.10;;;;;;5017705;28;20454;-86
2022/09/16 04:41:59;;;;;;;3.53;2.80;;;19.20;56.00;;;;;;5032656;28;21653;-88
2022/09/16 04:44:29;;;;;;;5.73;2.17;;;19.20;55.90;;;;;;5034301;28;20542;-89
2022/09/16 04:46:56;;;;;;;3.43;2.53;;;19.10;56.20;;;;;;5037259;28;20815;-87
2022/09/16 04:49:22;;;;;;;4.73;2.47;;;18.90;56.60;;;;;;5048523;28;20457;-90
2022/09/16 04:51:51;;;;;;;6.97;3.27;;;18.90;57.10;;;;;;5034750;28;20839;-87
2022/09/16 04:54:18;;;;;;;7.23;3.67;;;19.00;56.90;;;;;;5050102;28;20478;-90
2022/09/16 04:56:45;;;;;;;6.80;3.13;;;19.00;56.90;;;;;;5035770;28;20494;-88
2022/09/16 04:59:13;;;;;;;6.03;2.73;;;19.00;56.90;;;;;;5034954;28;20616;-87
2022/09/16 05:01:42;;;;;;;5.60;3.60;;;19.10;56.80;;;;;;5016050;28;20476;-86
2022/09/16 05:04:10;;;;;;;3.60;2.40;;;19.10;56.60;;;;;;5047553;28;20457;-87
2022/09/16 05:06:39;;;;;;;3.27;2.73;;;19.20;56.70;;;;;;5049811;28;20456;-87
2022/09/16 05:09:07;;;;;;;3.97;2.60;;;19.20;56.50;;;;;;5004051;28;21290;-87
2022/09/16 05:11:36;;;;;;;8.47;2.80;;;19.30;56.40;;;;;;5019510;28;20476;-87
2022/09/16 05:14:05;;;;;;;5.47;2.83;;;19.30;56.20;;;;;;5037637;28;20530;-86
2022/09/16 05:16:34;;;;;;;7.33;2.90;;;19.30;56.30;;;;;;5031724;28;20458;-88
2022/09/16 05:19:03;;;;;;;8.27;2.50;;;19.30;56.20;;;;;;5045220;28;20477;-87
2022/09/16 05:21:32;;;;;;;7.03;2.40;;;19.30;56.10;;;;;;5029369;28;20473;-89
2022/09/16 05:24:01;;;;;;;10.57;3.10;;;19.40;56.10;;;;;;5018025;28;20970;-88
2022/09/16 05:26:30;;;;;;;9.63;2.60;;;19.20;56.00;;;;;;5019464;28;20999;-88
2022/09/16 05:29:01;;;;;;;3.63;2.60;;;19.00;56.10;;;;;;5043097;28;21067;-88
2022/09/16 05:31:30;;;;;;;2.60;2.40;;;18.90;56.50;;;;;;5026862;28;20486;-87
2022/09/16 05:33:59;;;;;;;3.30;2.60;;;18.80;56.60;;;;;;5052354;28;20958;-89
2022/09/16 05:36:29;;;;;;;3.17;2.57;;;18.60;57.10;;;;;;5008604;28;20532;-91
2022/09/16 05:38:56;;;;;;;5.63;3.10;;;18.60;57.30;;;;;;5036701;28;20508;-89
2022/09/16 05:41:24;;;;;;;3.60;2.60;;;18.80;57.20;;;;;;5033925;28;20904;-89
2022/09/16 05:43:51;;;;;;;6.47;2.77;;;18.90;57.10;;;;;;5036103;28;20449;-89
2022/09/16 05:46:20;;;;;;;6.07;2.73;;;18.80;56.90;;;;;;5033702;28;20451;-88
2022/09/16 05:48:47;;;;;;;3.47;2.53;;;18.60;57.80;;;;;;5039607;28;20491;-88
2022/09/16 05:51:17;;;;;;;5.53;2.63;;;18.70;57.60;;;;;;5036386;28;20508;-88
2022/09/16 05:53:46;;;;;;;5.13;3.27;;;18.60;57.10;;;;;;5051894;28;21283;-89
2022/09/16 05:56:14;;;;;;;3.60;2.43;;;18.30;57.70;;;;;;5038431;28;20848;-88
2022/09/16 05:58:41;;;;;;;2.90;2.53;;;18.30;58.40;;;;;;5037218;28;20456;-89
2022/09/16 06:01:11;;;;;;;4.60;3.30;;;18.30;58.00;;;;;;5033696;28;20452;-89
2022/09/16 06:03:40;;;;;;;6.20;2.40;;;18.30;57.80;;;;;;5052721;28;20455;-89
2022/09/16 06:06:13;;;;;;;8.03;2.73;;;18.30;57.50;;;;;;5036465;28;20545;-90
2022/09/16 06:08:41;;;;;;;7.20;3.03;;;18.30;57.60;;;;;;5025830;28;20449;-90
2022/09/16 06:11:10;;;;;;;2.83;2.27;;;18.40;56.70;;;;;;5037632;28;20471;-88
2022/09/16 06:13:39;;;;;;;4.40;2.73;;;18.50;56.90;;;;;;5025255;28;20461;-89
2022/09/16 06:16:08;;;;;;;4.83;2.57;;;18.80;56.40;;;;;;5001948;28;20460;-88
2022/09/16 06:18:36;;;;;;;2.93;1.93;;;18.90;55.70;;;;;;5032693;28;20576;-91
2022/09/16 06:21:06;;;;;;;4.87;2.40;;;19.00;55.80;;;;;;5031993;28;20548;-89
2022/09/16 06:23:33;;;;;;;4.07;2.17;;;19.20;55.40;;;;;;5004939;28;20678;-89
2022/09/16 06:26:03;;;;;;;2.47;2.20;;;19.30;55.20;;;;;;5023316;28;20573;-89
2022/09/16 06:28:30;;;;;;;4.57;2.00;;;19.40;54.80;;;;;;5031425;28;20449;-88
2022/09/16 06:31:02;;;;;;;3.23;2.50;;;19.40;54.20;;;;;;5052046;28;20550;-89
2022/09/16 06:33:29;;;;;;;7.63;2.20;;;19.50;53.80;;;;;;5025134;28;20441;-88
2022/09/16 06:35:57;;;;;;;10.80;2.27;;;19.40;53.60;;;;;;5021424;28;20502;-88
2022/09/16 06:38:24;;;;;;;4.40;2.00;;;19.50;53.60;;;;;;5033151;28;20464;-87
2022/09/16 06:40:51;;;;;;;2.63;1.63;;;19.60;53.50;;;;;;5017079;28;20476;-89
2022/09/16 06:43:19;;;;;;;1.70;1.47;;;19.60;52.50;;;;;;5009594;28;20437;-88
2022/09/16 06:45:46;;;;;;;2.17;1.90;;;19.50;51.20;;;;;;5035547;28;20453;-88
2022/09/16 06:48:12;;;;;;;1.90;1.70;;;19.50;52.40;;;;;;5033232;28;20453;-88
2022/09/16 06:50:40;;;;;;;9.40;1.73;;;19.50;52.60;;;;;;5033074;28;20740;-88
2022/09/16 06:53:07;;;;;;;2.03;1.57;;;19.60;52.80;;;;;;5003273;28;20542;-88
2022/09/16 06:55:34;;;;;;;4.10;2.10;;;19.60;53.40;;;;;;5051637;28;20445;-89
2022/09/16 06:58:01;;;;;;;4.07;2.13;;;19.60;53.00;;;;;;5054270;28;20439;-90
2022/09/16 07:00:29;;;;;;;3.90;2.53;;;19.50;52.20;;;;;;5001644;28;20477;-87
2022/09/16 07:02:56;;;;;;;4.23;1.87;;;19.50;52.10;;;;;;5048006;28;20471;-88
2022/09/16 07:05:24;;;;;;;3.60;2.33;;;19.30;51.90;;;;;;5033283;28;20456;-88
2022/09/16 07:07:51;;;;;;;2.70;2.10;;;19.20;52.30;;;;;;5020767;28;20863;-88
2022/09/16 07:10:18;;;;;;;2.63;2.40;;;19.20;52.60;;;;;;5031109;28;20473;-88
2022/09/16 07:12:45;;;;;;;4.23;1.60;;;19.20;52.90;;;;;;5030278;28;20500;-90
2022/09/16 07:15:12;;;;;;;1.80;1.60;;;19.20;52.00;;;;;;5036552;28;20455;-87
2022/09/16 07:17:40;;;;;;;10.20;2.20;;;19.00;52.30;;;;;;5030966;28;20445;-86
2022/09/16 07:20:08;;;;;;;2.50;1.77;;;19.00;51.40;;;;;;5029037;28;20538;-89
2022/09/16 07:22:35;;;;;;;2.10;1.90;;;18.80;52.20;;;;;;5036958;28;20472;-89
2022/09/16 07:25:02;;;;;;;3.00;2.47;;;19.00;53.40;;;;;;5035751;28;20473;-89
2022/09/16 07:27:30;;;;;;;2.23;1.50;;;18.90;51.80;;;;;;5034995;28;20451;-88
2022/09/16 07:29:57;;;;;;;3.67;2.13;;;18.80;52.00;;;;;;5052054;28;21036;-87
2022/09/16 07:32:24;;;;;;;3.30;1.80;;;18.90;52.20;;;;;;5051732;28;20472;-87
2022/09/16 07:34:52;;;;;;;4.93;1.90;;;18.80;51.40;;;;;;5034084;28;20449;-88
2022/09/16 07:37:20;;;;;;;4.00;1.80;;;18.70;51.00;;;;;;5040184;28;20537;-88
2022/09/16 07:39:48;;;;;;;8.03;2.53;;;18.80;51.50;;;;;;5056998;28;21051;-87
2022/09/16 07:42:15;;;;;;;2.70;1.50;;;18.80;51.70;;;;;;5019975;28;20946;-87
2022/09/16 07:44:42;;;;;;;4.63;1.73;;;18.80;50.10;;;;;;5060111;28;20475;-88
2022/09/16 07:47:09;;;;;;;6.30;1.63;;;18.40;50.30;;;;;;5054198;28;20602;-88
2022/09/16 07:49:36;;;;;;;2.03;1.83;;;18.40;50.80;;;;;;5019533;28;20460;-88
2022/09/16 07:52:04;;;;;;;7.10;1.90;;;18.60;49.90;;;;;;5037211;28;20924;-87
2022/09/16 07:54:31;;;;;;;5.33;1.83;;;18.40;50.00;;;;;;5032017;28;20799;-89
2022/09/16 07:56:58;;;;;;;5.63;2.37;;;18.50;51.00;;;;;;5044671;28;20485;-88
2022/09/16 07:59:25;;;;;;;2.10;1.93;;;18.70;50.60;;;;;;5037261;28;20468;-90
2022/09/16 08:01:52;;;;;;;6.90;3.40;;;18.80;51.30;;;;;;5053505;28;20473;-86
2022/09/16 08:04:20;;;;;;;1.80;1.50;;;18.90;49.30;;;;;;5002238;28;20476;-89
2022/09/16 08:06:48;;;;;;;12.77;1.97;;;18.80;47.70;;;;;;5036017;28;20450;-88
2022/09/16 08:09:16;;;;;;;3.30;1.60;;;18.80;47.90;;;;;;5033220;28;20476;-88
2022/09/16 08:11:43;;;;;;;6.23;1.80;;;18.80;47.30;;;;;;5024871;28;20560;-87
2022/09/16 08:14:10;;;;;;;6.57;2.53;;;18.80;47.60;;;;;;5042953;28;21520;-88
2022/09/16 08:16:37;;;;;;;4.10;1.70;;;18.80;49.50;;;;;;5053225;28;20457;-89
2022/09/16 08:19:04;;;;;;;2.47;1.53;;;18.90;49.70;;;;;;5025089;28;20442;-88
2022/09/16 08:21:31;;;;;;;2.33;1.67;;;19.10;50.20;;;;;;5035620;28;20568;-87
2022/09/16 08:23:58;;;;;;;2.10;1.90;;;19.40;49.20;;;;;;5056239;28;20556;-90
2022/09/16 08:26:26;;;;;;;1.87;1.67;;;19.30;48.60;;;;;;5033712;28;21247;-88
2022/09/16 08:28:53;;;;;;;5.17;2.27;;;19.50;48.70;;;;;;5051200;28;20457;-88
2022/09/16 08:31:20;;;;;;;6.43;2.07;;;19.70;49.30;;;;;;5021027;28;21074;-90
2022/09/16 08:33:48;;;;;;;2.70;1.97;;;19.60;49.20;;;;;;5036393;28;20864;-89
2022/09/16 08:36:18;;;;;;;3.87;2.30;;;19.90;49.30;;;;;;5034065;28;20445;-90
2022/09/16 08:38:46;;;;;;;5.63;1.80;;;20.00;49.20;;;;;;5037362;28;20465;-88
2022/09/16 08:41:41;;;;;;;3.37;2.10;;;19.90;49.20;;;;;;5042393;28;20871;-89
2022/09/16 08:44:21;;;;;;;3.27;2.03;;;20.10;49.00;;;;;;5003433;28;20932;-88
2022/09/16 08:46:53;;;;;;;4.40;2.20;;;20.30;48.10;;;;;;5054747;28;21016;-88
2022/09/16 08:49:27;;;;;;;4.60;2.00;;;20.30;48.20;;;;;;5023073;28;21194;-89
2022/09/16 08:51:55;;;;;;;2.70;1.70;;;20.20;47.70;;;;;;5043158;28;20951;-87
2022/09/16 08:54:30;;;;;;;6.27;2.17;;;20.20;48.40;;;;;;5024215;28;20492;-88
2022/09/16 08:57:02;;;;;;;6.33;1.87;;;20.10;48.10;;;;;;5025909;28;20441;-89
2022/09/16 08:59:35;;;;;;;4.40;2.10;;;20.00;48.70;;;;;;5019529;28;20555;-88
2022/09/16 09:02:21;;;;;;;2.43;2.20;;;19.80;48.20;;;;;;5055261;28;21053;-91
2022/09/16 09:04:48;;;;;;;5.40;3.00;;;19.80;48.80;;;;;;5053345;28;20524;-88
2022/09/16 09:07:22;;;;;;;3.67;2.40;;;19.90;48.50;;;;;;5042234;28;20521;-87
2022/09/16 09:10:01;;;;;;;3.50;2.93;;;19.80;48.10;;;;;;5058769;28;20460;-88
2022/09/16 09:12:36;;;;;;;2.43;2.17;;;20.00;49.10;;;;;;5040772;28;20448;-88
2022/09/16 09:15:24;;;;;;;3.70;1.60;;;20.00;47.80;;;;;;5054719;28;20454;-88
2022/09/16 09:18:04;;;;;;;2.03;1.47;;;20.00;47.70;;;;;;5037881;28;20951;-88
2022/09/16 09:20:43;;;;;;;2.17;1.83;;;20.30;46.90;;;;;;5038511;28;20476;-91
2022/09/16 09:23:27;;;;;;;6.73;2.43;;;20.50;46.90;;;;;;5032325;28;20971;-89
2022/09/16 09:25:58;;;;;;;4.80;1.83;;;20.70;46.80;;;;;;5023795;28;20460;-88
2022/09/16 09:28:49;;;;;;;2.83;1.50;;;20.80;46.40;;;;;;5023182;28;20461;-92
2022/09/16 09:31:32;;;;;;;2.77;1.50;;;21.00;44.60;;;;;;5015378;28;20473;-90
2022/09/16 09:34:08;;;;;;;5.83;1.50;;;20.70;42.70;;;;;;5039547;28;20473;-92
2022/09/16 09:36:48;;;;;;;2.67;1.73;;;20.60;43.00;;;;;;5011240;28;21461;-89
2022/09/16 09:39:35;;;;;;;3.63;1.40;;;20.80;43.40;;;;;;5003278;28;21138;-88
2022/09/16 09:42:10;;;;;;;4.13;2.13;;;20.40;43.20;;;;;;5040833;28;21003;-91
2022/09/16 09:44:47;;;;;;;2.17;1.77;;;20.10;45.50;;;;;;5045151;28;20667;-89
2022/09/16 09:47:19;;;;;;;1.63;1.30;;;20.10;45.30;;;;;;5048175;28;20437;-89
2022/09/16 09:49:52;;;;;;;6.87;1.87;;;19.90;44.70;;;;;;5030726;28;20502;-89
2022/09/16 09:52:26;;;;;;;5.13;1.47;;;19.70;46.20;;;;;;5038736;28;21032;-86
2022/09/16 09:54:53;;;;;;;1.67;1.57;;;19.80;46.90;;;;;;5026170;28;20449;-89
2022/09/16 09:57:29;;;;;;;5.43;1.90;;;20.10;46.50;;;;;;5034025;28;20500;-88
2022/09/16 10:00:04;;;;;;;6.33;1.70;;;20.50;46.00;;;;;;5041033;28;20485;-89
2022/09/16 10:02:40;;;;;;;3.43;1.77;;;21.00;45.60;;;;;;5023266;28;20874;-89
2022/09/16 10:05:15;;;;;;;1.60;1.50;;;20.90;42.40;;;;;;5044771;28;20457;-89
2022/09/16 10:07:42;;;;;;;4.23;1.60;;;20.80;42.50;;;;;;5055331;28;20456;-88
2022/09/16 10:10:14;;;;;;;3.33;1.37;;;20.30;42.70;;;;;;5056402;28;20862;-88
2022/09/16 10:12:41;;;;;;;2.93;1.47;;;20.10;43.70;;;;;;5057859;28;20440;-89
2022/09/16 10:15:21;;;;;;;2.27;1.40;;;20.50;43.60;;;;;;5016052;28;20464;-90
2022/09/16 10:17:49;;;;;;;3.63;1.37;;;21.10;43.80;;;;;;5043837;28;20449;-89
2022/09/16 10:20:25;;;;;;;6.23;1.50;;;21.20;42.10;;;;;;5024151;28;20993;-86
2022/09/16 10:22:58;;;;;;;3.23;1.40;;;21.20;42.60;;;;;;5008608;28;20444;-88
2022/09/16 10:25:26;;;;;;;1.77;1.60;;;21.10;41.30;;;;;;5056988;28;20444;-90
2022/09/16 10:27:58;;;;;;;2.10;1.50;;;21.20;42.40;;;;;;5039113;28;20446;-89
2022/09/16 10:30:28;;;;;;;1.73;1.50;;;21.10;43.50;;;;;;5023616;28;20471;-89
2022/09/16 10:33:00;;;;;;;2.40;1.57;;;21.10;42.80;;;;;;5039523;28;21014;-89
2022/09/16 10:35:28;;;;;;;3.83;1.80;;;21.20;42.50;;;;;;5022767;28;20816;-89
2022/09/16 10:37:57;;;;;;;1.60;1.30;;;21.30;40.00;;;;;;5038788;28;20528;-89
2022/09/16 10:40:25;;;;;;;1.50;1.40;;;21.30;40.30;;;;;;5022368;28;21189;-89
2022/09/16 10:42:54;;;;;;;2.20;1.40;;;21.20;39.50;;;;;;5052957;28;21020;-88
2022/09/16 10:45:27;;;;;;;3.33;1.50;;;21.30;40.40;;;;;;5023430;28;20456;-93
2022/09/16 10:47:58;;;;;;;1.93;1.60;;;21.50;41.30;;;;;;5024696;28;20448;-88
2022/09/16 10:50:25;;;;;;;2.13;1.60;;;21.50;39.10;;;;;;5011072;28;20462;-88
2022/09/16 10:52:53;;;;;;;3.47;1.60;;;21.50;41.40;;;;;;5053723;28;20460;-88
2022/09/16 10:55:26;;;;;;;2.80;1.50;;;21.70;40.60;;;;;;5023011;28;20457;-88
2022/09/16 10:57:54;;;;;;;2.37;1.40;;;21.90;40.00;;;;;;5055523;28;20456;-88
2022/09/16 11:00:23;;;;;;;2.23;1.60;;;22.30;40.70;;;;;;5036780;28;20499;-89
2022/09/16 11:03:42;;;;;;;3.97;1.77;;;22.20;40.40;;;;;;5058412;28;20450;-89
2022/09/16 11:06:22;;;;;;;4.90;1.50;;;22.00;39.30;;;;;;5027235;28;20875;-88
2022/09/16 11:08:58;;;;;;;4.70;1.50;;;21.70;40.90;;;;;;5032471;28;20459;-90
2022/09/16 11:11:39;;;;;;;1.77;1.67;;;21.40;41.30;;;;;;5009143;28;20483;-90
2022/09/16 11:14:15;;;;;;;2.13;1.70;;;21.20;41.40;;;;;;5038253;28;20531;-89
2022/09/16 11:16:55;;;;;;;2.33;1.93;;;20.80;41.20;;;;;;5056332;28;20445;-89
2022/09/16 11:19:32;;;;;;;7.03;1.80;;;20.50;43.10;;;;;;5052728;28;20461;-92
2022/09/16 11:22:15;;;;;;;3.60;2.10;;;20.70;42.50;;;;;;5037024;28;20469;-89
2022/09/16 11:24:54;;;;;;;2.00;1.50;;;20.70;42.20;;;;;;5038238;28;20444;-89
2022/09/16 11:27:29;;;;;;;5.57;2.10;;;20.90;41.10;;;;;;5040662;28;20445;-88
2022/09/16 11:30:11;;;;;;;4.60;1.50;;;20.90;42.10;;;;;;5028169;28;20486;-89
2022/09/16 11:33:03;;;;;;;7.27;1.90;;;21.00;41.90;;;;;;5035732;28;21112;-88
2022/09/16 11:35:58;;;;;;;4.70;1.67;;;21.10;41.20;;;;;;5012113;28;20470;-89
2022/09/16 11:38:37;;;;;;;5.50;2.03;;;21.10;42.10;;;;;;5052539;28;20450;-89
2022/09/16 11:41:11;;;;;;;1.70;1.57;;;21.00;42.00;;;;;;5029570;28;20496;-88
2022/09/16 11:43:59;;;;;;;2.70;2.00;;;20.80;42.40;;;;;;5030111;28;20460;-89
2022/09/16 11:46:34;;;;;;;4.27;2.23;;;20.70;43.30;;;;;;5052694;28;20437;-92
2022/09/16 11:49:25;;;;;;;2.67;2.33;;;20.80;45.00;;;;;;5053341;28;20444;-88
2022/09/16 11:52:03;;;;;;;5.23;2.13;;;20.70;44.60;;;;;;5030098;28;20963;-88
2022/09/16 11:54:45;;;;;;;4.47;1.93;;;20.90;44.90;;;;;;5023821;28;20864;-90
2022/09/16 11:57:16;;;;;;;3.17;1.57;;;20.90;44.30;;;;;;5046714;28;20804;-88
2022/09/16 11:59:51;;;;;;;4.80;1.97;;;21.00;44.50;;;;;;5026805;28;20512;-89
2022/09/16 12:02:24;;;;;;;2.80;1.60;;;20.90;44.00;;;;;;5038581;28;20548;-89
2022/09/16 12:05:02;;;;;;;4.30;1.60;;;20.80;43.10;;;;;;5054057;28;20457;-88
2022/09/16 12:07:36;;;;;;;6.23;2.77;;;20.70;43.50;;;;;;5023627;28;20494;-90
2022/09/16 12:10:13;;;;;;;3.60;1.43;;;20.80;43.40;;;;;;5003546;28;20456;-89
2022/09/16 12:12:45;;;;;;;3.90;1.43;;;21.10;43.40;;;;;;5024784;28;20494;-92
2022/09/16 12:15:17;;;;;;;2.80;1.20;;;21.60;40.70;;;;;;5036512;28;20972;-89
2022/09/16 12:17:52;;;;;;;5.50;1.10;;;21.90;40.80;;;;;;5059369;28;20497;-88
2022/09/16 12:20:24;;;;;;;4.20;1.20;;;22.20;40.70;;;;;;5043895;28;21029;-90
2022/09/16 12:22:57;;;;;;;2.50;1.20;;;22.30;39.20;;;;;;5033837;28;20456;-90
2022/09/16 12:25:28;;;;;;;6.60;1.77;;;22.30;40.10;;;;;;5052817;28;21015;-89
2022/09/16 12:28:01;;;;;;;3.97;1.20;;;22.10;38.70;;;;;;5039797;28;20438;-91
2022/09/16 12:30:34;;;;;;;1.53;1.30;;;21.70;40.10;;;;;;5040694;28;20539;-89
2022/09/16 12:33:06;;;;;;;4.80;1.40;;;21.50;41.40;;;;;;5055002;28;20933;-89
2022/09/16 12:35:37;;;;;;;2.80;1.23;;;21.40;40.20;;;;;;5028626;28;21178;-89
2022/09/16 12:38:12;;;;;;;1.87;1.40;;;21.40;39.60;;;;;;5036565;28;20453;-91
2022/09/16 12:40:52;;;;;;;1.20;0.90;;;21.50;39.30;;;;;;5038910;28;20465;-89
2022/09/16 12:43:40;;;;;;;1.40;1.10;;;21.70;39.70;;;;;;5037613;28;20434;-89
2022/09/16 12:46:27;;;;;;;2.30;1.10;;;22.00;40.10;;;;;;5011444;28;21045;-89
2022/09/16 12:49:33;;;;;;;2.27;1.20;;;22.30;39.10;;;;;;5056153;28;20447;-89
2022/09/16 12:52:28;;;;;;;1.17;1.07;;;22.60;35.90;;;;;;5020678;28;21056;-89
2022/09/16 12:55:26;;;;;;;1.83;0.90;;;22.70;36.10;;;;;;4986182;28;20441;-89
2022/09/16 12:58:10;;;;;;;2.33;1.27;;;22.70;38.20;;;;;;5054067;28;21129;-88
2022/09/16 13:00:42;;;;;;;1.27;1.00;;;22.80;35.80;;;;;;5020379;28;20500;-89
2022/09/16 13:03:15;;;;;;;1.27;0.87;;;22.50;37.80;;;;;;5035270;28;20441;-88
2022/09/16 13:05:46;;;;;;;1.80;1.00;;;22.80;37.70;;;;;;5036477;28;20819;-88
2022/09/16 13:08:21;;;;;;;1.53;1.10;;;23.00;37.40;;;;;;5025669;28;20969;-88
2022/09/16 13:10:57;;;;;;;1.67;1.00;;;23.00;36.90;;;;;;5018283;28;20515;-89